Time;durP1;ratioP1;P1;durP2;ratioP2;P2;SDS_P1;SDS_P2;PMS_P1;PMS_P2;Temp;Humidity;BMP_temperature;BMP_pressure;BME280_temperature;BME280_humidity;BME280_pressure;Samples;Min_cycle;Max_cycle;Signal;HPM_P1;HPM_P2
2022/07/20 00:00:39;;;;;;;12.65;3.70;;;;;;;31.42;34.85;98715.13;5074440;28;20044;-49
2022/07/20 00:03:11;;;;;;;24.60;3.88;;;;;;;31.40;35.16;98717.38;5073640;28;20042;-49
2022/07/20 00:05:42;;;;;;;15.73;3.95;;;;;;;31.36;35.20;98724.59;5074155;28;20389;-49
2022/07/20 00:08:08;;;;;;;7.75;4.07;;;;;;;31.35;35.19;98725.72;5073976;28;20025;-50
2022/07/20 00:13:19;;;;;;;7.90;4.05;;;;;;;31.34;35.20;98727.66;5074088;28;20035;-49
2022/07/20 00:15:45;;;;;;;9.77;3.45;;;;;;;31.26;34.93;98740.19;5073960;28;20557;-49
2022/07/20 00:18:12;;;;;;;16.27;7.72;;;;;;;31.18;35.42;98738.34;5055931;28;20054;-49
2022/07/20 00:20:38;;;;;;;7.30;4.85;;;;;;;31.15;35.84;98738.22;5073633;28;20052;-49
2022/07/20 00:23:04;;;;;;;10.63;7.10;;;;;;;30.95;35.91;98734.47;5073909;28;20025;-49
2022/07/20 00:25:30;;;;;;;13.55;8.63;;;;;;;30.77;36.34;98737.31;5073755;28;20021;-49
2022/07/20 00:27:56;;;;;;;10.20;5.65;;;;;;;30.74;36.42;98743.41;5055741;28;20030;-49
2022/07/20 00:30:22;;;;;;;8.98;4.22;;;;;;;30.61;36.34;98741.78;5073722;28;20405;-49
2022/07/20 00:32:48;;;;;;;9.90;4.45;;;;;;;30.60;36.75;98740.19;5055742;28;20097;-50
2022/07/20 00:35:15;;;;;;;6.15;3.53;;;;;;;30.57;36.70;98738.16;5055553;28;20482;-49
2022/07/20 00:37:41;;;;;;;4.50;3.78;;;;;;;30.48;36.60;98740.91;5073572;28;20124;-50
2022/07/20 00:40:08;;;;;;;7.97;4.10;;;;;;;30.36;37.27;98754.41;5073515;28;20031;-50
2022/07/20 00:42:35;;;;;;;8.82;4.25;;;;;;;30.22;37.75;98757.31;5055456;28;20025;-50
2022/07/20 00:45:02;;;;;;;4.65;3.42;;;;;;;30.10;37.96;98757.25;5073443;28;20024;-50
2022/07/20 00:47:28;;;;;;;8.23;4.82;;;;;;;29.98;38.46;98752.53;5055318;28;20021;-50
2022/07/20 00:49:53;;;;;;;11.40;4.57;;;;;;;29.86;38.62;98756.75;5073306;28;20470;-48
2022/07/20 00:52:19;;;;;;;9.35;4.72;;;;;;;29.78;38.50;98754.91;5073201;28;20056;-50
2022/07/20 00:54:48;;;;;;;9.77;4.30;;;;;;;29.68;38.65;98745.19;5055221;28;20043;-49
2022/07/20 00:57:15;;;;;;;11.30;4.50;;;;;;;29.61;39.21;98752.22;5073392;28;20052;-49
2022/07/20 00:59:41;;;;;;;9.23;4.20;;;;;;;29.51;39.47;98747.19;5073077;28;20024;-50
2022/07/20 01:02:07;;;;;;;15.00;5.25;;;;;;;29.43;39.53;98748.81;5055088;28;20077;-50
2022/07/20 01:04:33;;;;;;;8.93;4.28;;;;;;;29.35;39.41;98757.75;5073141;28;20047;-49
2022/07/20 01:07:02;;;;;;;9.48;4.22;;;;;;;29.32;39.66;98759.19;5072893;28;20013;-50
2022/07/20 01:09:27;;;;;;;8.45;4.55;;;;;;;29.33;39.70;98749.94;5072887;28;20048;-49
2022/07/20 01:11:53;;;;;;;15.75;4.75;;;;;;;29.37;39.63;98752.81;5072835;28;20101;-49
2022/07/20 01:14:19;;;;;;;12.43;4.82;;;;;;;29.39;39.85;98759.47;5053869;28;20040;-50
2022/07/20 01:16:44;;;;;;;13.88;4.72;;;;;;;29.49;39.77;98763.72;5072764;28;20023;-49
2022/07/20 01:19:10;;;;;;;6.55;4.10;;;;;;;29.55;39.50;98767.84;5072494;28;20518;-48
2022/07/20 01:21:40;;;;;;;9.32;4.40;;;;;;;29.56;39.28;98769.44;5072845;28;20126;-48
2022/07/20 01:24:11;;;;;;;6.68;3.75;;;;;;;29.47;39.44;98760.56;5072527;28;20074;-48
2022/07/20 01:26:41;;;;;;;8.32;4.13;;;;;;;29.38;39.56;98765.19;5054589;28;20126;-47
2022/07/20 01:29:08;;;;;;;8.75;4.45;;;;;;;29.21;40.82;98769.53;5072525;28;20029;-47
2022/07/20 01:31:37;;;;;;;9.48;3.92;;;;;;;28.98;40.75;98768.94;5072504;28;20389;-48
2022/07/20 01:34:04;;;;;;;10.18;4.53;;;;;;;28.77;41.38;98762.59;5072388;28;20021;-48
2022/07/20 01:36:30;;;;;;;8.73;4.03;;;;;;;28.65;42.11;98769.44;5072649;28;20393;-48
2022/07/20 01:38:55;;;;;;;11.10;4.18;;;;;;;28.66;41.93;98762.91;5072332;28;20104;-48
2022/07/20 01:41:21;;;;;;;9.20;4.07;;;;;;;28.64;41.98;98765.13;5072539;28;20024;-48
2022/07/20 01:43:47;;;;;;;4.95;4.43;;;;;;;28.64;41.92;98767.06;5054362;28;20032;-48
2022/07/20 01:46:13;;;;;;;8.23;3.83;;;;;;;28.60;41.74;98766.88;5054229;28;20056;-48
2022/07/20 01:48:38;;;;;;;9.40;4.80;;;;;;;28.63;42.44;98760.88;5054258;28;20078;-48
2022/07/20 01:51:04;;;;;;;12.07;4.78;;;;;;;28.77;42.20;98763.38;5072263;28;20078;-48
2022/07/20 01:53:30;;;;;;;9.73;4.43;;;;;;;29.01;41.87;98762.88;5054197;28;20016;-48
2022/07/20 01:55:56;;;;;;;8.15;4.22;;;;;;;29.07;41.86;98764.28;5072057;28;20032;-49
2022/07/20 01:58:22;;;;;;;4.68;4.20;;;;;;;28.91;41.99;98763.19;5072128;28;20028;-48
2022/07/20 02:00:48;;;;;;;8.10;4.55;;;;;;;28.72;42.31;98762.75;5071956;28;20024;-48
2022/07/20 02:03:14;;;;;;;9.00;5.15;;;;;;;28.60;42.92;98771.50;5072058;28;20055;-48
2022/07/20 02:05:40;;;;;;;15.57;5.30;;;;;;;28.56;43.03;98775.94;5053989;28;20516;-48
2022/07/20 02:08:06;;;;;;;9.65;4.97;;;;;;;28.54;43.31;98776.25;5071852;28;20016;-48
2022/07/20 02:10:32;;;;;;;8.73;4.97;;;;;;;28.56;43.35;98774.03;5053914;28;20040;-47
2022/07/20 02:12:57;;;;;;;8.00;4.85;;;;;;;28.63;43.01;98773.56;5053937;28;20490;-48
2022/07/20 02:18:09;;;;;;;13.50;4.53;;;;;;;28.75;42.58;98786.41;5072189;28;20038;-47
2022/07/20 02:20:35;;;;;;;9.98;5.20;;;;;;;28.66;43.01;98775.63;5053615;28;20106;-46
2022/07/20 02:23:04;;;;;;;11.20;5.45;;;;;;;28.74;43.17;98779.44;5053788;28;20024;-48
2022/07/20 02:25:30;;;;;;;14.55;6.95;;;;;;;29.17;42.86;98776.69;5053303;28;20029;-48
2022/07/20 02:27:56;;;;;;;17.50;6.18;;;;;;;29.71;41.24;98770.00;5071713;28;20031;-48
2022/07/20 02:30:22;;;;;;;11.63;7.70;;;;;;;29.96;40.73;98771.84;5071705;28;20077;-47
2022/07/20 02:32:48;;;;;;;10.85;6.53;;;;;;;30.01;40.48;98773.56;5071673;28;20020;-48
2022/07/20 02:35:13;;;;;;;14.95;6.70;;;;;;;30.07;40.83;98764.13;5053607;28;20090;-49
2022/07/20 02:37:39;;;;;;;15.65;5.95;;;;;;;30.02;40.54;98767.81;5071588;28;20017;-49
2022/07/20 02:40:05;;;;;;;12.55;6.70;;;;;;;29.89;40.73;98763.44;5053548;28;20031;-49
2022/07/20 02:42:31;;;;;;;16.13;6.43;;;;;;;29.72;41.06;98766.22;5071583;28;20020;-49
2022/07/20 02:44:57;;;;;;;8.82;6.55;;;;;;;29.66;41.13;98768.25;5071873;28;20549;-49
2022/07/20 02:47:22;;;;;;;21.02;7.90;;;;;;;29.62;40.98;98773.56;5071445;28;20039;-49
2022/07/20 02:49:48;;;;;;;16.38;8.10;;;;;;;29.56;41.23;98765.91;5071538;28;20488;-50
2022/07/20 02:52:14;;;;;;;11.82;7.38;;;;;;;29.56;41.50;98774.03;5071505;28;20024;-49
2022/07/20 02:54:39;;;;;;;17.80;8.88;;;;;;;29.64;41.35;98770.50;5053480;28;20189;-49
2022/07/20 02:57:05;;;;;;;8.48;5.30;;;;;;;29.65;41.06;98772.09;5071502;28;20503;-49
2022/07/20 02:59:31;;;;;;;15.57;7.82;;;;;;;29.45;41.51;98782.50;5053434;28;20077;-49
2022/07/20 03:01:56;;;;;;;16.00;7.15;;;;;;;29.37;41.76;98790.66;5071325;28;20025;-49
2022/07/20 03:04:22;;;;;;;8.88;5.63;;;;;;;29.20;41.97;98789.59;5071358;28;20032;-49
2022/07/20 03:06:48;;;;;;;18.40;5.40;;;;;;;29.03;42.35;98792.28;5053203;28;20028;-49
2022/07/20 03:09:13;;;;;;;13.20;5.40;;;;;;;28.82;42.71;98782.13;5071289;28;20100;-49
2022/07/20 03:11:40;;;;;;;9.93;5.53;;;;;;;28.56;43.62;98789.44;5053293;28;20031;-49
2022/07/20 03:14:05;;;;;;;18.20;7.10;;;;;;;28.28;44.21;98782.38;5053269;28;20058;-49
2022/07/20 03:16:31;;;;;;;10.82;6.30;;;;;;;28.10;44.86;98778.06;5071195;28;20139;-49
2022/07/20 03:18:57;;;;;;;20.63;11.18;;;;;;;27.89;44.97;98788.66;5071258;28;20093;-48
2022/07/20 03:21:25;;;;;;;16.20;10.45;;;;;;;27.80;44.87;98783.19;5053193;28;20032;-49
2022/07/20 03:23:51;;;;;;;14.93;6.88;;;;;;;27.72;45.56;98781.25;5071186;28;20021;-49
2022/07/20 03:26:18;;;;;;;21.42;16.92;;;;;;;27.71;45.49;98779.69;5053085;28;20036;-49
2022/07/20 03:28:44;;;;;;;33.13;21.80;;;;;;;27.66;46.67;98780.59;5071077;28;20043;-49
2022/07/20 03:31:10;;;;;;;21.98;13.35;;;;;;;27.59;45.82;98787.56;5053134;28;20063;-49
2022/07/20 03:33:36;;;;;;;9.27;6.20;;;;;;;27.61;45.96;98786.13;5053349;28;20060;-49
2022/07/20 03:36:02;;;;;;;29.95;19.40;;;;;;;27.65;46.16;98792.50;5071064;28;20081;-49
2022/07/20 03:38:28;;;;;;;16.17;10.38;;;;;;;27.68;46.05;98786.47;5074355;28;20047;-49
2022/07/20 03:40:53;;;;;;;17.90;10.73;;;;;;;27.82;45.28;98791.75;5056701;28;20493;-49
2022/07/20 03:43:19;;;;;;;25.00;17.23;;;;;;;27.89;45.72;98802.16;5056622;28;20524;-49
2022/07/20 03:45:44;;;;;;;39.40;24.50;;;;;;;28.04;46.22;98799.00;5056544;28;20063;-49
2022/07/20 03:48:10;;;;;;;10.65;8.20;;;;;;;28.28;45.32;98795.09;5056488;28;20021;-48
2022/07/20 03:50:36;;;;;;;29.85;18.65;;;;;;;28.45;45.45;98795.13;5074504;28;20434;-49
2022/07/20 03:53:02;;;;;;;16.98;12.07;;;;;;;28.32;44.69;98800.66;5056431;28;20032;-49
2022/07/20 03:55:28;;;;;;;29.50;13.07;;;;;;;28.21;44.67;98802.84;5074396;28;20103;-49
2022/07/20 03:57:54;;;;;;;18.00;9.93;;;;;;;28.27;44.60;98804.28;5074380;28;20155;-49
2022/07/20 04:00:19;;;;;;;23.73;13.57;;;;;;;28.49;43.80;98803.38;5074208;28;20028;-49
2022/07/20 04:02:45;;;;;;;10.95;5.63;;;;;;;28.47;44.12;98805.59;5056311;28;20058;-49
2022/07/20 04:05:11;;;;;;;8.15;5.40;;;;;;;28.58;43.65;98804.22;5056145;28;20028;-49
2022/07/20 04:07:36;;;;;;;14.70;6.38;;;;;;;28.78;43.21;98800.09;5056075;28;20027;-48
2022/07/20 04:10:03;;;;;;;8.85;5.40;;;;;;;28.90;43.04;98804.84;5074090;28;20033;-49
2022/07/20 04:12:29;;;;;;;18.88;6.05;;;;;;;28.88;42.59;98804.38;5074092;28;20040;-49
2022/07/20 04:14:55;;;;;;;8.48;5.32;;;;;;;28.88;42.86;98810.56;5055991;28;20029;-50
2022/07/20 04:17:22;;;;;;;10.30;5.00;;;;;;;28.93;42.41;98806.13;5055926;28;20448;-50
2022/07/20 04:19:47;;;;;;;13.55;5.97;;;;;;;28.75;42.58;98806.13;5046138;28;20083;-50
2022/07/20 04:22:13;;;;;;;11.77;5.10;;;;;;;28.66;42.69;98816.13;5053795;28;20026;-49
2022/07/20 04:24:39;;;;;;;14.00;5.85;;;;;;;28.43;43.24;98815.44;5053850;28;20017;-49
2022/07/20 04:27:05;;;;;;;5.45;4.72;;;;;;;28.28;43.72;98812.06;5053750;28;20021;-50
2022/07/20 04:29:31;;;;;;;8.98;5.10;;;;;;;28.37;43.78;98814.81;5053709;28;20474;-50
2022/07/20 04:31:58;;;;;;;11.95;5.20;;;;;;;28.32;43.50;98814.16;5035826;28;20502;-49
2022/07/20 04:34:23;;;;;;;14.60;5.53;;;;;;;28.21;44.11;98814.47;5053677;28;20029;-50
2022/07/20 04:36:49;;;;;;;8.68;5.30;;;;;;;28.21;43.80;98814.47;5053616;28;20032;-49
2022/07/20 04:39:15;;;;;;;10.98;5.18;;;;;;;28.25;43.98;98812.72;5053551;28;20071;-49
2022/07/20 04:41:40;;;;;;;11.00;4.82;;;;;;;28.34;43.33;98812.72;5053536;28;20100;-50
2022/07/20 04:44:06;;;;;;;10.60;5.85;;;;;;;28.60;43.14;98812.00;5053475;28;20082;-49
2022/07/20 04:46:35;;;;;;;9.75;4.93;;;;;;;28.97;42.44;98812.47;5053462;28;20021;-49
2022/07/20 04:49:01;;;;;;;10.48;5.65;;;;;;;29.14;41.97;98811.69;5053161;28;20021;-49
2022/07/20 04:51:27;;;;;;;13.27;5.60;;;;;;;29.20;41.45;98811.22;5053280;28;20509;-49
2022/07/20 04:53:53;;;;;;;13.70;5.53;;;;;;;29.26;41.34;98812.63;5035421;28;20052;-49
2022/07/20 04:56:19;;;;;;;11.85;5.28;;;;;;;29.40;41.37;98811.63;5053179;28;20044;-49
2022/07/20 04:58:52;;;;;;;8.57;5.55;;;;;;;29.52;40.98;98811.78;5035541;28;20033;-47
2022/07/20 05:01:24;;;;;;;8.75;5.40;;;;;;;29.50;41.29;98813.19;5053095;28;20526;-48
2022/07/20 05:03:51;;;;;;;9.68;5.22;;;;;;;29.55;41.10;98815.75;5053091;28;20035;-49
2022/07/20 05:06:17;;;;;;;10.75;5.00;;;;;;;29.79;40.62;98817.91;5053028;28;20029;-49
2022/07/20 05:08:42;;;;;;;8.85;5.20;;;;;;;29.96;40.12;98812.44;5052921;28;20017;-49
2022/07/20 05:11:08;;;;;;;9.13;5.97;;;;;;;30.29;39.92;98817.19;5052881;28;20092;-49
2022/07/20 05:13:34;;;;;;;8.80;5.22;;;;;;;30.88;38.75;98813.59;5034991;28;20094;-49
2022/07/20 05:15:59;;;;;;;13.20;5.75;;;;;;;31.46;38.15;98808.28;5034918;28;20060;-49
2022/07/20 05:18:27;;;;;;;16.65;5.65;;;;;;;32.06;36.74;98816.84;5052785;28;20029;-50
2022/07/20 05:20:52;;;;;;;12.48;5.15;;;;;;;32.66;35.12;98811.69;5055367;28;20084;-50
2022/07/20 05:23:18;;;;;;;9.80;4.88;;;;;;;32.80;35.11;98812.06;5092971;28;20055;-49
2022/07/20 05:25:44;;;;;;;9.27;5.25;;;;;;;33.17;34.50;98811.16;5074637;28;20028;-48
2022/07/20 05:28:09;;;;;;;9.48;4.93;;;;;;;33.55;33.63;98809.78;5092975;28;20054;-49
2022/07/20 05:30:35;;;;;;;8.80;5.10;;;;;;;33.93;33.51;98825.53;5074588;28;20032;-48
2022/07/20 05:33:01;;;;;;;9.00;5.22;;;;;;;33.98;33.59;98821.72;5092750;28;20153;-48
2022/07/20 05:35:27;;;;;;;14.77;4.88;;;;;;;34.17;32.77;98818.31;5092623;28;20050;-50
2022/07/20 05:37:52;;;;;;;8.02;5.05;;;;;;;33.82;33.09;98824.47;5093009;28;20088;-50
2022/07/20 05:40:18;;;;;;;11.02;5.50;;;;;;;33.63;33.42;98822.47;5092602;28;20035;-49
2022/07/20 05:42:44;;;;;;;6.32;4.97;;;;;;;33.85;33.03;98826.50;5092657;28;20445;-50
2022/07/20 05:45:10;;;;;;;9.02;4.40;;;;;;;34.39;31.66;98814.91;5092543;28;20099;-49
2022/07/20 05:47:36;;;;;;;5.63;4.50;;;;;;;34.84;31.87;98822.88;5092474;28;20016;-49
2022/07/20 05:50:01;;;;;;;16.30;5.43;;;;;;;35.15;31.12;98824.63;5074255;28;20120;-48
2022/07/20 05:52:27;;;;;;;12.30;5.15;;;;;;;35.17;31.13;98831.31;5092704;28;20109;-48
2022/07/20 05:54:53;;;;;;;10.73;4.75;;;;;;;35.70;30.25;98827.19;5092347;28;20027;-48
2022/07/20 05:57:18;;;;;;;17.10;4.55;;;;;;;36.34;29.74;98830.94;5074093;28;20027;-48
2022/07/20 05:59:44;;;;;;;13.35;4.55;;;;;;;36.99;28.23;98829.00;5091733;28;20564;-48
2022/07/20 06:02:10;;;;;;;16.35;5.03;;;;;;;37.22;28.48;98828.88;5092236;28;20032;-47
2022/07/20 06:04:35;;;;;;;16.42;5.65;;;;;;;37.86;27.12;98831.44;5092304;28;20462;-48
2022/07/20 06:07:01;;;;;;;17.30;5.43;;;;;;;38.59;26.15;98830.72;5092098;28;20020;-49
2022/07/20 06:09:27;;;;;;;13.48;4.53;;;;;;;38.86;25.61;98830.44;5092187;28;20455;-47
2022/07/20 06:11:52;;;;;;;14.00;4.90;;;;;;;39.22;25.38;98842.34;5074021;28;20028;-48
2022/07/20 06:14:18;;;;;;;24.27;5.65;;;;;;;38.93;25.56;98838.69;5073961;28;20481;-49
2022/07/20 06:16:44;;;;;;;10.88;4.43;;;;;;;39.22;25.28;98847.03;5073870;28;20024;-49
2022/07/20 06:19:09;;;;;;;10.88;4.20;;;;;;;39.32;24.42;98844.31;5091758;28;20044;-49
2022/07/20 06:21:36;;;;;;;10.85;5.70;;;;;;;39.90;24.33;98842.41;5092058;28;20512;-49
2022/07/20 06:24:02;;;;;;;16.88;5.30;;;;;;;40.47;23.66;98832.50;5091991;28;20035;-49
2022/07/20 06:26:28;;;;;;;19.83;5.85;;;;;;;40.83;23.76;98843.38;5073814;28;20020;-50
2022/07/20 06:28:53;;;;;;;17.67;5.25;;;;;;;40.88;23.13;98848.47;5091841;28;20027;-50
2022/07/20 06:31:19;;;;;;;11.80;4.70;;;;;;;40.28;23.19;98842.72;5091877;28;20020;-49
2022/07/20 06:33:45;;;;;;;8.98;5.10;;;;;;;40.23;23.92;98851.41;5073816;28;20028;-50
2022/07/20 06:36:10;;;;;;;9.57;4.40;;;;;;;40.40;23.32;98847.06;5073668;28;20024;-48
2022/07/20 06:38:36;;;;;;;8.60;4.15;;;;;;;40.65;23.13;98844.22;5091887;28;20024;-48
2022/07/20 06:41:02;;;;;;;11.88;4.70;;;;;;;40.30;23.87;98854.16;5091806;28;20481;-49
2022/07/20 06:43:27;;;;;;;11.95;5.43;;;;;;;40.54;23.64;98849.75;5073711;28;20405;-48
2022/07/20 06:45:53;;;;;;;11.65;4.13;;;;;;;41.23;22.70;98838.44;5091826;28;20051;-49
2022/07/20 06:48:19;;;;;;;10.18;4.60;;;;;;;41.70;22.78;98845.22;5091676;28;20485;-49
2022/07/20 06:50:46;;;;;;;17.35;4.47;;;;;;;42.03;21.61;98847.69;5091626;28;20024;-49
2022/07/20 06:53:12;;;;;;;6.80;3.70;;;;;;;41.62;21.96;98853.97;5091734;28;20486;-49
2022/07/20 06:55:37;;;;;;;14.40;5.07;;;;;;;42.02;21.97;98851.66;5091692;28;20031;-50
2022/07/20 06:58:03;;;;;;;6.00;3.53;;;;;;;42.85;20.57;98846.00;5073504;28;20024;-50
2022/07/20 07:00:29;;;;;;;9.40;3.80;;;;;;;43.44;19.85;98851.09;5091677;28;20016;-49
2022/07/20 07:02:55;;;;;;;8.63;3.47;;;;;;;43.77;19.39;98845.06;5073435;28;20102;-49
2022/07/20 07:05:21;;;;;;;12.30;5.43;;;;;;;44.01;19.68;98851.34;5091485;28;20115;-49
2022/07/20 07:07:47;;;;;;;16.02;5.25;;;;;;;44.18;19.66;98855.03;5091515;28;20027;-49
2022/07/20 07:10:13;;;;;;;8.65;4.55;;;;;;;44.36;19.17;98849.16;5091509;28;20028;-49
2022/07/20 07:12:39;;;;;;;23.35;4.90;;;;;;;44.41;19.54;98848.63;5075773;28;20024;-49
2022/07/20 07:15:05;;;;;;;13.93;3.90;;;;;;;44.55;19.80;98848.38;5095462;28;20024;-49
2022/07/20 07:17:31;;;;;;;17.90;4.32;;;;;;;45.15;19.13;98853.84;5077193;28;20024;-48
2022/07/20 07:19:58;;;;;;;10.70;3.83;;;;;;;45.80;18.16;98853.09;5095072;28;20113;-48
2022/07/20 07:22:28;;;;;;;7.32;3.95;;;;;;;46.31;17.28;98849.00;5095342;28;20500;-48
2022/07/20 07:24:54;;;;;;;20.70;4.35;;;;;;;46.55;17.46;98844.75;5095258;28;20062;-48
2022/07/20 07:27:20;;;;;;;32.03;5.05;;;;;;;46.66;17.06;98840.88;5095143;28;20122;-49
2022/07/20 07:29:49;;;;;;;12.00;3.83;;;;;;;46.95;16.51;98849.94;5076946;28;20032;-47
2022/07/20 07:32:15;;;;;;;19.42;4.65;;;;;;;46.98;16.56;98839.94;5095067;28;20099;-48
2022/07/20 07:34:41;;;;;;;10.10;4.03;;;;;;;46.81;16.43;98842.81;5076913;28;20326;-48
2022/07/20 07:37:07;;;;;;;15.38;3.80;;;;;;;46.34;16.57;98846.13;5060226;28;20063;-49
2022/07/20 07:39:33;;;;;;;30.67;4.60;;;;;;;46.12;16.81;98857.03;5076780;28;20035;-47
2022/07/20 07:41:58;;;;;;;55.90;7.32;;;;;;;45.70;17.26;98851.41;5094929;28;20016;-48
2022/07/20 07:44:24;;;;;;;15.82;4.60;;;;;;;45.09;17.33;98846.47;5076854;28;20431;-49
2022/07/20 07:46:50;;;;;;;66.68;7.97;;;;;;;44.76;18.33;98843.63;5076568;28;20032;-49
2022/07/20 07:49:16;;;;;;;47.25;6.20;;;;;;;44.74;18.16;98843.25;5094745;28;20142;-48
2022/07/20 07:51:42;;;;;;;21.70;4.57;;;;;;;44.96;17.64;98841.59;5095005;28;20024;-48
2022/07/20 07:54:08;;;;;;;19.67;4.88;;;;;;;45.17;17.55;98828.47;5094672;28;20024;-48
2022/07/20 07:56:35;;;;;;;29.25;5.35;;;;;;;45.58;17.35;98838.97;5094623;28;20520;-51
2022/07/20 07:59:02;;;;;;;23.42;4.85;;;;;;;46.10;16.93;98833.72;5076424;28;20405;-51
2022/07/20 08:01:28;;;;;;;8.23;3.22;;;;;;;46.16;17.14;98832.72;5094404;28;20065;-50
2022/07/20 08:03:54;;;;;;;12.00;3.83;;;;;;;46.69;17.00;98826.91;5094500;28;20493;-52
2022/07/20 08:06:22;;;;;;;8.07;3.60;;;;;;;47.29;16.13;98831.03;5076234;28;20104;-51
2022/07/20 08:08:48;;;;;;;4.93;3.60;;;;;;;47.32;15.58;98839.28;5094359;28;20119;-51
2022/07/20 08:11:15;;;;;;;7.20;3.30;;;;;;;46.91;15.90;98835.38;5076174;28;20448;-51
2022/07/20 08:13:41;;;;;;;12.15;4.53;;;;;;;47.50;15.74;98841.47;5094293;28;20378;-51
2022/07/20 08:16:07;;;;;;;9.55;3.70;;;;;;;47.97;15.29;98842.69;5094179;28;20024;-51
2022/07/20 08:18:33;;;;;;;10.00;3.20;;;;;;;47.79;15.07;98843.28;5094259;28;20034;-52
2022/07/20 08:20:58;;;;;;;4.78;3.15;;;;;;;47.74;15.52;98838.31;5093956;28;20063;-51
2022/07/20 08:23:24;;;;;;;10.50;3.58;;;;;;;48.17;15.12;98837.59;5075415;28;20059;-52
2022/07/20 08:25:50;;;;;;;8.73;3.40;;;;;;;48.48;14.85;98836.09;5093995;28;20073;-51
2022/07/20 08:28:18;;;;;;;15.32;3.47;;;;;;;49.18;14.46;98840.19;5093988;28;20507;-50
2022/07/20 08:30:46;;;;;;;15.48;5.22;;;;;;;49.06;14.35;98837.50;5094229;28;20397;-52
2022/07/20 08:33:13;;;;;;;6.35;3.17;;;;;;;48.72;14.44;98836.41;5075742;28;20103;-51
2022/07/20 08:35:40;;;;;;;12.07;3.33;;;;;;;48.30;15.09;98842.34;5075672;28;20020;-51
2022/07/20 08:38:07;;;;;;;10.00;4.03;;;;;;;48.23;15.30;98839.81;5093845;28;20055;-51
2022/07/20 08:40:34;;;;;;;74.90;8.95;;;;;;;48.73;14.91;98838.75;5093795;28;20016;-50
2022/07/20 08:43:04;;;;;;;28.05;5.97;;;;;;;49.15;14.27;98840.34;5075550;28;20054;-51
2022/07/20 08:45:31;;;;;;;20.50;5.70;;;;;;;48.72;14.18;98842.00;5093666;28;20021;-51
2022/07/20 08:48:00;;;;;;;13.23;4.22;;;;;;;48.65;14.63;98839.50;5093522;28;20501;-53
2022/07/20 08:50:32;;;;;;;12.02;4.63;;;;;;;48.87;14.39;98840.22;5075462;28;20043;-53
2022/07/20 08:52:58;;;;;;;42.10;7.40;;;;;;;48.87;14.25;98837.41;5075345;28;20097;-53
2022/07/20 08:55:25;;;;;;;9.60;3.80;;;;;;;48.77;14.22;98838.63;5093507;28;20035;-52
2022/07/20 08:57:51;;;;;;;57.20;8.02;;;;;;;48.81;14.36;98839.25;5093425;28;20080;-52
2022/07/20 09:00:17;;;;;;;14.60;4.20;;;;;;;48.92;14.35;98839.63;5093391;28;20028;-52
2022/07/20 09:03:01;;;;;;;20.98;5.03;;;;;;;47.74;14.89;98836.31;5058855;28;20546;-51
2022/07/20 09:05:29;;;;;;;15.13;4.40;;;;;;;46.11;15.92;98847.16;5093380;28;20039;-52
2022/07/20 09:07:58;;;;;;;10.45;3.92;;;;;;;45.88;15.95;98845.34;5093165;28;20028;-52
2022/07/20 09:10:29;;;;;;;20.75;4.82;;;;;;;45.99;16.28;98842.31;5093182;28;20020;-52
2022/07/20 09:13:04;;;;;;;12.32;4.10;;;;;;;45.96;16.32;98843.19;5093137;28;20020;-51
2022/07/20 09:15:43;;;;;;;7.50;3.40;;;;;;;45.81;16.25;98842.78;5075029;28;20024;-51
2022/07/20 09:18:18;;;;;;;9.57;3.45;;;;;;;46.07;16.11;98834.63;5074885;28;20043;-51
2022/07/20 09:20:56;;;;;;;15.68;4.57;;;;;;;46.00;16.24;98835.53;5057357;28;20051;-50
2022/07/20 09:23:26;;;;;;;20.67;5.22;;;;;;;45.33;16.69;98836.81;5072783;28;20074;-50
2022/07/20 09:26:00;;;;;;;17.65;4.38;;;;;;;44.86;17.22;98831.53;5054683;28;20469;-52
2022/07/20 09:28:36;;;;;;;23.23;4.70;;;;;;;45.13;17.57;98834.09;5054659;28;20032;-53
2022/07/20 09:31:08;;;;;;;27.10;6.18;;;;;;;46.15;16.87;98831.19;5072544;28;20028;-51
2022/07/20 09:33:35;;;;;;;28.42;5.97;;;;;;;47.46;15.72;98828.91;5072619;28;20048;-52
2022/07/20 09:36:04;;;;;;;45.42;7.32;;;;;;;48.35;14.96;98830.63;5071845;28;20375;-52
2022/07/20 09:38:33;;;;;;;37.67;5.47;;;;;;;48.65;14.96;98831.13;5054503;28;20103;-52
2022/07/20 09:40:59;;;;;;;32.35;6.32;;;;;;;48.88;15.84;98825.06;5072626;28;20029;-52
2022/07/20 09:43:30;;;;;;;7.60;4.10;;;;;;;48.97;14.52;98833.44;5072383;28;20029;-52
2022/07/20 09:46:09;;;;;;;24.88;5.30;;;;;;;49.30;14.33;98821.78;5072203;28;20066;-52
2022/07/20 09:48:43;;;;;;;53.35;7.22;;;;;;;49.41;14.06;98823.38;5072242;28;20552;-53
2022/07/20 09:51:29;;;;;;;15.30;4.25;;;;;;;49.80;13.82;98826.53;5072208;28;20016;-52
2022/07/20 09:54:02;;;;;;;8.45;3.38;;;;;;;49.75;13.62;98819.56;5072283;28;20036;-51
2022/07/20 09:56:29;;;;;;;9.45;3.30;;;;;;;48.40;14.14;98816.13;5037640;28;20032;-52
2022/07/20 09:58:58;;;;;;;26.55;5.40;;;;;;;47.14;15.46;98814.03;5072042;28;20020;-52
2022/07/20 10:01:27;;;;;;;14.38;4.38;;;;;;;46.30;15.81;98819.69;5072105;28;20107;-52
2022/07/20 10:03:55;;;;;;;6.18;3.40;;;;;;;46.07;16.22;98804.88;5053978;28;20513;-52
2022/07/20 10:06:23;;;;;;;14.30;4.80;;;;;;;46.44;16.14;98806.19;5072008;28;20104;-51
2022/07/20 10:08:49;;;;;;;8.52;3.30;;;;;;;47.43;15.18;98802.75;5072149;28;20036;-51
2022/07/20 10:11:17;;;;;;;11.95;3.60;;;;;;;48.06;14.59;98808.59;5071935;28;20030;-52
2022/07/20 10:13:44;;;;;;;4.85;3.42;;;;;;;48.11;14.33;98797.66;5071905;28;20024;-53
2022/07/20 10:16:19;;;;;;;10.35;3.97;;;;;;;47.71;15.20;98803.81;5053896;28;20048;-53
2022/07/20 10:18:46;;;;;;;7.43;3.33;;;;;;;47.75;14.54;98801.69;5071599;28;20029;-53
2022/07/20 10:21:32;;;;;;;6.38;2.95;;;;;;;47.24;14.77;98785.13;5053835;28;20040;-53
2022/07/20 10:24:22;;;;;;;11.43;3.15;;;;;;;46.83;15.26;98790.38;5071757;28;20059;-51
2022/07/20 10:27:10;;;;;;;10.25;3.72;;;;;;;46.52;15.42;98781.78;5071706;28;20020;-52
2022/07/20 10:29:37;;;;;;;4.95;3.10;;;;;;;47.13;15.30;98785.47;5071837;28;20024;-53
2022/07/20 10:32:09;;;;;;;14.65;3.80;;;;;;;47.36;14.73;98784.31;5072015;28;20054;-53
2022/07/20 10:34:40;;;;;;;15.20;4.28;;;;;;;47.59;14.74;98783.19;5071700;28;20495;-52
2022/07/20 10:37:28;;;;;;;6.30;3.33;;;;;;;47.89;14.32;98778.16;5053629;28;20021;-53
2022/07/20 10:40:02;;;;;;;9.93;3.53;;;;;;;47.32;14.44;98775.34;5053712;28;20027;-52
2022/07/20 10:42:40;;;;;;;9.90;4.05;;;;;;;47.60;13.96;98773.59;5071657;28;20025;-52
2022/07/20 10:45:20;;;;;;;6.65;3.22;;;;;;;47.79;14.24;98770.97;5071554;28;20044;-52
2022/07/20 10:47:58;;;;;;;9.45;4.32;;;;;;;48.22;13.67;98761.09;5075696;28;20078;-52
2022/07/20 10:50:36;;;;;;;16.10;3.85;;;;;;;48.70;13.63;98753.31;5057760;28;20032;-53
2022/07/20 10:53:13;;;;;;;6.88;2.88;;;;;;;48.27;13.45;98748.56;5075664;28;20595;-51
2022/07/20 10:55:42;;;;;;;21.50;4.68;;;;;;;48.22;13.55;98752.72;5075523;28;20033;-52
2022/07/20 10:58:14;;;;;;;8.77;2.70;;;;;;;47.93;13.28;98747.44;5075537;28;20502;-52
2022/07/20 11:00:45;;;;;;;37.85;5.03;;;;;;;47.86;13.20;98736.56;5075681;28;20428;-52
2022/07/20 11:03:13;;;;;;;20.70;4.32;;;;;;;47.37;12.94;98744.19;5075479;28;20035;-51
2022/07/20 11:05:39;;;;;;;7.60;2.72;;;;;;;47.08;13.24;98740.78;5075386;28;20543;-52
2022/07/20 11:08:07;;;;;;;7.55;2.90;;;;;;;46.66;14.15;98733.34;5075347;28;20021;-52
2022/07/20 11:10:33;;;;;;;7.47;2.85;;;;;;;46.56;14.35;98735.22;5075348;28;20029;-52
2022/07/20 11:13:04;;;;;;;68.45;8.02;;;;;;;46.78;13.83;98732.56;5075254;28;20031;-52
2022/07/20 11:15:57;;;;;;;8.75;3.30;;;;;;;47.36;13.59;98731.50;5075303;28;20086;-53
2022/07/20 11:18:26;;;;;;;23.40;4.53;;;;;;;47.64;13.45;98722.66;5072310;28;20437;-53
2022/07/20 11:21:00;;;;;;;25.25;5.53;;;;;;;47.89;13.57;98713.38;5074930;28;20079;-52
2022/07/20 11:23:37;;;;;;;10.38;2.95;;;;;;;47.87;13.15;98710.28;5075113;28;20036;-53
2022/07/20 11:26:07;;;;;;;7.88;2.80;;;;;;;47.60;13.51;98714.44;5075064;28;20566;-52
2022/07/20 11:28:36;;;;;;;13.50;3.50;;;;;;;47.05;13.52;98716.66;5074792;28;20016;-52
2022/07/20 11:31:03;;;;;;;14.13;3.70;;;;;;;46.36;14.05;98706.88;5056937;28;20497;-53
2022/07/20 11:33:35;;;;;;;16.00;3.42;;;;;;;46.27;14.20;98709.56;5074871;28;20111;-52